sensor_id;sensor_type;location;lat;lon;timestamp;temperature;humidity
13229;DHT22;6680;53.220;10.402;2023-08-07T00:01:32;14.90;99.90
13229;DHT22;6680;53.220;10.402;2023-08-07T00:03:58;14.80;99.90
13229;DHT22;6680;53.220;10.402;2023-08-07T00:06:25;14.80;99.90
13229;DHT22;6680;53.220;10.402;2023-08-07T00:08:53;14.80;99.90
13229;DHT22;6680;53.220;10.402;2023-08-07T00:11:19;14.80;99.90
13229;DHT22;6680;53.220;10.402;2023-08-07T00:13:46;14.60;99.90
13229;DHT22;6680;53.220;10.402;2023-08-07T00:16:13;14.70;99.90
13229;DHT22;6680;53.220;10.402;2023-08-07T00:18:39;14.80;99.90
13229;DHT22;6680;53.220;10.402;2023-08-07T00:21:06;14.80;99.90
13229;DHT22;6680;53.220;10.402;2023-08-07T00:23:32;14.70;99.90
13229;DHT22;6680;53.220;10.402;2023-08-07T00:26:00;14.70;99.90
13229;DHT22;6680;53.220;10.402;2023-08-07T00:28:27;14.70;99.90
13229;DHT22;6680;53.220;10.402;2023-08-07T00:30:55;14.70;99.90
13229;DHT22;6680;53.220;10.402;2023-08-07T00:33:21;14.70;99.90
13229;DHT22;6680;53.220;10.402;2023-08-07T00:35:48;14.70;99.90
13229;DHT22;6680;53.220;10.402;2023-08-07T00:38:15;14.70;99.90
13229;DHT22;6680;53.220;10.402;2023-08-07T00:40:41;14.70;99.90
13229;DHT22;6680;53.220;10.402;2023-08-07T00:43:09;14.70;99.90
13229;DHT22;6680;53.220;10.402;2023-08-07T00:45:39;14.70;99.90
13229;DHT22;6680;53.220;10.402;2023-08-07T00:48:07;14.70;99.90
13229;DHT22;6680;53.220;10.402;2023-08-07T00:50:34;14.70;99.90
13229;DHT22;6680;53.220;10.402;2023-08-07T00:53:01;14.70;99.90
13229;DHT22;6680;53.220;10.402;2023-08-07T00:55:28;14.70;99.90
13229;DHT22;6680;53.220;10.402;2023-08-07T00:57:55;14.70;99.90
13229;DHT22;6680;53.220;10.402;2023-08-07T01:00:23;14.70;99.90
13229;DHT22;6680;53.220;10.402;2023-08-07T01:02:51;14.70;99.90
13229;DHT22;6680;53.220;10.402;2023-08-07T01:05:18;14.70;99.90
13229;DHT22;6680;53.220;10.402;2023-08-07T01:07:47;14.60;99.90
13229;DHT22;6680;53.220;10.402;2023-08-07T01:10:16;14.70;99.90
13229;DHT22;6680;53.220;10.402;2023-08-07T01:12:50;14.60;99.90
13229;DHT22;6680;53.220;10.402;2023-08-07T01:15:22;14.60;99.90
13229;DHT22;6680;53.220;10.402;2023-08-07T01:17:54;14.60;99.90
13229;DHT22;6680;53.220;10.402;2023-08-07T01:20:21;14.60;99.90
13229;DHT22;6680;53.220;10.402;2023-08-07T01:22:49;14.60;99.90
13229;DHT22;6680;53.220;10.402;2023-08-07T01:25:16;14.50;99.90
13229;DHT22;6680;53.220;10.402;2023-08-07T01:27:49;14.30;99.90
13229;DHT22;6680;53.220;10.402;2023-08-07T01:30:22;14.50;99.90
13229;DHT22;6680;53.220;10.402;2023-08-07T01:32:59;14.50;99.90
13229;DHT22;6680;53.220;10.402;2023-08-07T01:35:33;14.50;99.90
13229;DHT22;6680;53.220;10.402;2023-08-07T01:38:02;14.40;99.90
13229;DHT22;6680;53.220;10.402;2023-08-07T01:40:30;14.40;99.90
13229;DHT22;6680;53.220;10.402;2023-08-07T01:42:57;14.40;99.90
13229;DHT22;6680;53.220;10.402;2023-08-07T01:45:25;14.30;99.90
13229;DHT22;6680;53.220;10.402;2023-08-07T01:47:52;14.40;99.90
13229;DHT22;6680;53.220;10.402;2023-08-07T01:50:18;14.40;99.90
13229;DHT22;6680;53.220;10.402;2023-08-07T01:52:45;14.40;99.90
13229;DHT22;6680;53.220;10.402;2023-08-07T01:55:14;14.40;99.90
13229;DHT22;6680;53.220;10.402;2023-08-07T01:57:40;14.40;99.90
13229;DHT22;6680;53.220;10.402;2023-08-07T02:00:08;14.40;99.90
13229;DHT22;6680;53.220;10.402;2023-08-07T02:02:35;14.40;99.90
13229;DHT22;6680;53.220;10.402;2023-08-07T02:05:02;14.40;99.90
13229;DHT22;6680;53.220;10.402;2023-08-07T02:07:29;14.40;99.90
13229;DHT22;6680;53.220;10.402;2023-08-07T02:09:56;14.40;99.90
13229;DHT22;6680;53.220;10.402;2023-08-07T02:12:24;14.40;99.90
13229;DHT22;6680;53.220;10.402;2023-08-07T02:14:52;14.40;99.90
13229;DHT22;6680;53.220;10.402;2023-08-07T02:17:20;14.60;99.90
13229;DHT22;6680;53.220;10.402;2023-08-07T02:19:47;14.30;99.90
13229;DHT22;6680;53.220;10.402;2023-08-07T02:22:13;14.30;99.90
13229;DHT22;6680;53.220;10.402;2023-08-07T02:24:40;14.30;99.90
13229;DHT22;6680;53.220;10.402;2023-08-07T02:27:07;14.30;99.90
13229;DHT22;6680;53.220;10.402;2023-08-07T02:29:35;14.30;99.90
13229;DHT22;6680;53.220;10.402;2023-08-07T02:32:02;13.90;99.90
13229;DHT22;6680;53.220;10.402;2023-08-07T02:34:29;14.20;99.90
13229;DHT22;6680;53.220;10.402;2023-08-07T02:36:56;14.20;99.90
13229;DHT22;6680;53.220;10.402;2023-08-07T02:39:23;14.20;99.90
13229;DHT22;6680;53.220;10.402;2023-08-07T02:41:49;14.30;99.90
13229;DHT22;6680;53.220;10.402;2023-08-07T02:44:16;14.30;99.90
13229;DHT22;6680;53.220;10.402;2023-08-07T02:46:45;14.30;99.90
13229;DHT22;6680;53.220;10.402;2023-08-07T02:49:11;14.20;99.90
13229;DHT22;6680;53.220;10.402;2023-08-07T02:51:38;14.20;99.90
13229;DHT22;6680;53.220;10.402;2023-08-07T02:54:05;14.30;99.90
13229;DHT22;6680;53.220;10.402;2023-08-07T02:56:31;14.20;99.90
13229;DHT22;6680;53.220;10.402;2023-08-07T02:58:58;14.20;99.90
13229;DHT22;6680;53.220;10.402;2023-08-07T03:01:27;14.20;99.90
13229;DHT22;6680;53.220;10.402;2023-08-07T03:03:55;14.10;99.90
13229;DHT22;6680;53.220;10.402;2023-08-07T03:06:23;14.20;99.90
13229;DHT22;6680;53.220;10.402;2023-08-07T03:08:49;14.20;99.90
13229;DHT22;6680;53.220;10.402;2023-08-07T03:11:16;14.10;99.90
13229;DHT22;6680;53.220;10.402;2023-08-07T03:13:43;14.10;99.90
13229;DHT22;6680;53.220;10.402;2023-08-07T03:16:10;14.30;99.90
13229;DHT22;6680;53.220;10.402;2023-08-07T03:18:37;14.20;99.90
13229;DHT22;6680;53.220;10.402;2023-08-07T03:21:05;14.20;99.90
13229;DHT22;6680;53.220;10.402;2023-08-07T03:23:32;14.10;99.90
13229;DHT22;6680;53.220;10.402;2023-08-07T03:26:02;14.20;99.90
13229;DHT22;6680;53.220;10.402;2023-08-07T03:28:29;14.10;99.90
13229;DHT22;6680;53.220;10.402;2023-08-07T03:30:56;14.10;99.90
13229;DHT22;6680;53.220;10.402;2023-08-07T03:33:22;14.10;99.90
13229;DHT22;6680;53.220;10.402;2023-08-07T03:35:49;14.10;99.90
13229;DHT22;6680;53.220;10.402;2023-08-07T03:38:17;14.10;99.90
13229;DHT22;6680;53.220;10.402;2023-08-07T03:40:44;14.10;99.90
13229;DHT22;6680;53.220;10.402;2023-08-07T03:43:10;14.10;99.90
13229;DHT22;6680;53.220;10.402;2023-08-07T03:45:38;14.10;99.90
13229;DHT22;6680;53.220;10.402;2023-08-07T03:48:04;14.10;99.90
13229;DHT22;6680;53.220;10.402;2023-08-07T03:50:31;14.10;99.90
13229;DHT22;6680;53.220;10.402;2023-08-07T03:53:00;14.20;99.90
13229;DHT22;6680;53.220;10.402;2023-08-07T03:55:28;14.20;99.90
13229;DHT22;6680;53.220;10.402;2023-08-07T03:57:55;14.20;99.90
13229;DHT22;6680;53.220;10.402;2023-08-07T04:00:22;14.20;99.90
13229;DHT22;6680;53.220;10.402;2023-08-07T04:02:48;14.20;99.90
13229;DHT22;6680;53.220;10.402;2023-08-07T04:05:15;14.10;99.90
13229;DHT22;6680;53.220;10.402;2023-08-07T04:07:42;14.20;99.90
13229;DHT22;6680;53.220;10.402;2023-08-07T04:10:09;14.30;99.90
13229;DHT22;6680;53.220;10.402;2023-08-07T04:12:37;14.20;99.90
13229;DHT22;6680;53.220;10.402;2023-08-07T04:15:05;14.30;99.90
13229;DHT22;6680;53.220;10.402;2023-08-07T04:17:32;14.30;99.90
13229;DHT22;6680;53.220;10.402;2023-08-07T04:19:59;14.30;99.90
13229;DHT22;6680;53.220;10.402;2023-08-07T04:22:26;14.30;99.90
13229;DHT22;6680;53.220;10.402;2023-08-07T04:24:52;14.40;99.90
13229;DHT22;6680;53.220;10.402;2023-08-07T04:27:19;14.40;99.90
13229;DHT22;6680;53.220;10.402;2023-08-07T04:29:47;14.40;99.90
13229;DHT22;6680;53.220;10.402;2023-08-07T04:32:14;14.40;99.90
13229;DHT22;6680;53.220;10.402;2023-08-07T04:34:40;14.50;99.90
13229;DHT22;6680;53.220;10.402;2023-08-07T04:37:07;14.50;99.90
13229;DHT22;6680;53.220;10.402;2023-08-07T04:39:34;14.60;99.90
13229;DHT22;6680;53.220;10.402;2023-08-07T04:42:01;14.60;99.90
13229;DHT22;6680;53.220;10.402;2023-08-07T04:44:28;14.70;99.90
13229;DHT22;6680;53.220;10.402;2023-08-07T04:46:56;14.70;99.90
13229;DHT22;6680;53.220;10.402;2023-08-07T04:49:22;14.70;99.90
13229;DHT22;6680;53.220;10.402;2023-08-07T04:51:49;14.90;99.90
13229;DHT22;6680;53.220;10.402;2023-08-07T04:54:16;14.80;99.90
13229;DHT22;6680;53.220;10.402;2023-08-07T04:56:42;14.80;99.90
13229;DHT22;6680;53.220;10.402;2023-08-07T04:59:10;14.80;99.90
13229;DHT22;6680;53.220;10.402;2023-08-07T05:01:36;14.80;99.90
13229;DHT22;6680;53.220;10.402;2023-08-07T05:04:05;14.90;99.90
13229;DHT22;6680;53.220;10.402;2023-08-07T05:06:32;15.10;99.90
13229;DHT22;6680;53.220;10.402;2023-08-07T05:08:58;14.90;99.90
13229;DHT22;6680;53.220;10.402;2023-08-07T05:11:25;15.00;99.90
13229;DHT22;6680;53.220;10.402;2023-08-07T05:13:52;15.10;99.90
13229;DHT22;6680;53.220;10.402;2023-08-07T05:16:18;15.20;99.90
13229;DHT22;6680;53.220;10.402;2023-08-07T05:18:45;15.20;99.90
13229;DHT22;6680;53.220;10.402;2023-08-07T05:21:13;15.20;99.90
13229;DHT22;6680;53.220;10.402;2023-08-07T05:23:40;15.30;99.90
13229;DHT22;6680;53.220;10.402;2023-08-07T05:26:06;15.30;99.90
13229;DHT22;6680;53.220;10.402;2023-08-07T05:28:33;15.40;99.90
13229;DHT22;6680;53.220;10.402;2023-08-07T05:31:00;15.40;99.90
13229;DHT22;6680;53.220;10.402;2023-08-07T05:33:26;15.50;99.90
13229;DHT22;6680;53.220;10.402;2023-08-07T05:35:53;15.50;99.90
13229;DHT22;6680;53.220;10.402;2023-08-07T05:38:22;15.50;99.90
13229;DHT22;6680;53.220;10.402;2023-08-07T05:40:48;15.60;99.90
13229;DHT22;6680;53.220;10.402;2023-08-07T05:43:16;15.60;99.90
13229;DHT22;6680;53.220;10.402;2023-08-07T05:45:43;15.70;99.90
13229;DHT22;6680;53.220;10.402;2023-08-07T05:48:11;15.80;99.90
13229;DHT22;6680;53.220;10.402;2023-08-07T05:50:38;15.80;99.90
13229;DHT22;6680;53.220;10.402;2023-08-07T05:53:05;15.90;99.90
13229;DHT22;6680;53.220;10.402;2023-08-07T05:55:33;16.00;99.90
13229;DHT22;6680;53.220;10.402;2023-08-07T05:57:59;16.10;99.90
13229;DHT22;6680;53.220;10.402;2023-08-07T06:00:26;16.20;99.90
13229;DHT22;6680;53.220;10.402;2023-08-07T06:02:53;16.30;99.90
13229;DHT22;6680;53.220;10.402;2023-08-07T06:05:20;16.40;99.90
13229;DHT22;6680;53.220;10.402;2023-08-07T06:07:47;16.60;99.90
13229;DHT22;6680;53.220;10.402;2023-08-07T06:10:14;16.70;99.90
13229;DHT22;6680;53.220;10.402;2023-08-07T06:12:42;16.80;99.90
13229;DHT22;6680;53.220;10.402;2023-08-07T06:15:09;16.80;99.90
13229;DHT22;6680;53.220;10.402;2023-08-07T06:17:36;16.80;99.90
13229;DHT22;6680;53.220;10.402;2023-08-07T06:20:06;16.90;99.90
13229;DHT22;6680;53.220;10.402;2023-08-07T06:22:34;16.90;99.90
13229;DHT22;6680;53.220;10.402;2023-08-07T06:25:01;17.00;99.90
13229;DHT22;6680;53.220;10.402;2023-08-07T06:27:28;16.90;99.90
13229;DHT22;6680;53.220;10.402;2023-08-07T06:29:57;16.80;99.90
13229;DHT22;6680;53.220;10.402;2023-08-07T06:32:24;16.90;99.90
13229;DHT22;6680;53.220;10.402;2023-08-07T06:34:52;16.90;99.90
13229;DHT22;6680;53.220;10.402;2023-08-07T06:37:18;16.90;99.90
13229;DHT22;6680;53.220;10.402;2023-08-07T06:39:45;16.90;99.90
13229;DHT22;6680;53.220;10.402;2023-08-07T06:42:12;16.90;99.90
13229;DHT22;6680;53.220;10.402;2023-08-07T06:44:39;16.80;99.90
13229;DHT22;6680;53.220;10.402;2023-08-07T06:47:07;16.80;99.90
13229;DHT22;6680;53.220;10.402;2023-08-07T06:49:34;16.80;99.90
13229;DHT22;6680;53.220;10.402;2023-08-07T06:52:01;16.90;99.90
13229;DHT22;6680;53.220;10.402;2023-08-07T06:54:28;16.90;99.90
13229;DHT22;6680;53.220;10.402;2023-08-07T06:56:54;17.00;99.90
13229;DHT22;6680;53.220;10.402;2023-08-07T06:59:21;17.20;99.90
13229;DHT22;6680;53.220;10.402;2023-08-07T07:01:49;17.20;99.90
13229;DHT22;6680;53.220;10.402;2023-08-07T07:04:17;17.30;99.90
13229;DHT22;6680;53.220;10.402;2023-08-07T07:06:44;17.40;99.90
13229;DHT22;6680;53.220;10.402;2023-08-07T07:09:11;17.40;99.90
13229;DHT22;6680;53.220;10.402;2023-08-07T07:11:42;17.50;99.90
13229;DHT22;6680;53.220;10.402;2023-08-07T07:14:09;17.70;99.90
13229;DHT22;6680;53.220;10.402;2023-08-07T07:16:36;17.70;99.90
13229;DHT22;6680;53.220;10.402;2023-08-07T07:19:03;17.70;99.90
13229;DHT22;6680;53.220;10.402;2023-08-07T07:21:33;18.00;99.90
13229;DHT22;6680;53.220;10.402;2023-08-07T07:23:59;17.60;99.90
13229;DHT22;6680;53.220;10.402;2023-08-07T07:26:26;17.80;99.90
13229;DHT22;6680;53.220;10.402;2023-08-07T07:28:53;17.80;99.90
13229;DHT22;6680;53.220;10.402;2023-08-07T07:31:19;17.80;99.90
13229;DHT22;6680;53.220;10.402;2023-08-07T07:33:46;17.70;99.90
13229;DHT22;6680;53.220;10.402;2023-08-07T07:36:15;17.80;99.90
13229;DHT22;6680;53.220;10.402;2023-08-07T07:38:44;17.90;99.90
13229;DHT22;6680;53.220;10.402;2023-08-07T07:41:11;17.90;99.90
13229;DHT22;6680;53.220;10.402;2023-08-07T07:43:38;17.80;99.90
13229;DHT22;6680;53.220;10.402;2023-08-07T07:46:04;17.70;99.90
13229;DHT22;6680;53.220;10.402;2023-08-07T07:48:31;17.50;99.90
13229;DHT22;6680;53.220;10.402;2023-08-07T07:50:58;17.30;99.90
13229;DHT22;6680;53.220;10.402;2023-08-07T07:53:26;17.10;99.90
13229;DHT22;6680;53.220;10.402;2023-08-07T07:55:54;16.80;99.90
13229;DHT22;6680;53.220;10.402;2023-08-07T07:58:21;16.50;99.90
13229;DHT22;6680;53.220;10.402;2023-08-07T08:00:48;16.40;99.90
13229;DHT22;6680;53.220;10.402;2023-08-07T08:03:17;16.20;99.90
13229;DHT22;6680;53.220;10.402;2023-08-07T08:05:44;16.10;99.90
13229;DHT22;6680;53.220;10.402;2023-08-07T08:08:11;16.20;99.90
13229;DHT22;6680;53.220;10.402;2023-08-07T08:10:38;16.40;99.90
13229;DHT22;6680;53.220;10.402;2023-08-07T08:13:08;16.60;99.90
13229;DHT22;6680;53.220;10.402;2023-08-07T08:15:35;16.80;99.90
13229;DHT22;6680;53.220;10.402;2023-08-07T08:18:02;16.90;99.90
13229;DHT22;6680;53.220;10.402;2023-08-07T08:20:28;17.00;99.90
13229;DHT22;6680;53.220;10.402;2023-08-07T08:22:56;17.00;99.90
13229;DHT22;6680;53.220;10.402;2023-08-07T08:25:23;17.10;99.90
13229;DHT22;6680;53.220;10.402;2023-08-07T08:27:50;16.90;99.90
13229;DHT22;6680;53.220;10.402;2023-08-07T08:30:18;17.00;99.90
13229;DHT22;6680;53.220;10.402;2023-08-07T08:32:44;17.20;99.90
13229;DHT22;6680;53.220;10.402;2023-08-07T08:35:11;17.40;99.90
13229;DHT22;6680;53.220;10.402;2023-08-07T08:37:38;17.50;99.90
13229;DHT22;6680;53.220;10.402;2023-08-07T08:40:07;17.70;99.90
13229;DHT22;6680;53.220;10.402;2023-08-07T08:42:35;17.90;99.90
13229;DHT22;6680;53.220;10.402;2023-08-07T08:45:04;17.90;99.90
13229;DHT22;6680;53.220;10.402;2023-08-07T08:47:32;17.70;99.90
13229;DHT22;6680;53.220;10.402;2023-08-07T08:50:01;17.60;99.90
13229;DHT22;6680;53.220;10.402;2023-08-07T08:52:28;17.40;99.90
13229;DHT22;6680;53.220;10.402;2023-08-07T08:54:57;16.80;99.90
13229;DHT22;6680;53.220;10.402;2023-08-07T08:57:25;17.00;99.90
13229;DHT22;6680;53.220;10.402;2023-08-07T08:59:52;16.90;99.90
13229;DHT22;6680;53.220;10.402;2023-08-07T09:02:19;16.90;99.90
13229;DHT22;6680;53.220;10.402;2023-08-07T09:04:47;17.00;99.90
13229;DHT22;6680;53.220;10.402;2023-08-07T09:07:15;17.10;99.90
13229;DHT22;6680;53.220;10.402;2023-08-07T09:09:42;17.40;99.90
13229;DHT22;6680;53.220;10.402;2023-08-07T09:12:16;17.50;99.90
13229;DHT22;6680;53.220;10.402;2023-08-07T09:14:45;17.60;99.90
13229;DHT22;6680;53.220;10.402;2023-08-07T09:17:15;17.70;99.90
13229;DHT22;6680;53.220;10.402;2023-08-07T09:19:42;17.70;99.90
13229;DHT22;6680;53.220;10.402;2023-08-07T09:22:11;17.90;99.90
13229;DHT22;6680;53.220;10.402;2023-08-07T09:24:37;18.00;99.90
13229;DHT22;6680;53.220;10.402;2023-08-07T09:27:06;18.20;99.90
13229;DHT22;6680;53.220;10.402;2023-08-07T09:29:33;18.00;99.90
13229;DHT22;6680;53.220;10.402;2023-08-07T09:32:06;18.10;99.90
13229;DHT22;6680;53.220;10.402;2023-08-07T09:34:34;18.20;99.90
13229;DHT22;6680;53.220;10.402;2023-08-07T09:37:01;18.30;99.90
13229;DHT22;6680;53.220;10.402;2023-08-07T09:39:30;18.40;99.90
13229;DHT22;6680;53.220;10.402;2023-08-07T09:41:56;18.60;99.90
13229;DHT22;6680;53.220;10.402;2023-08-07T09:44:23;18.70;99.90
13229;DHT22;6680;53.220;10.402;2023-08-07T09:46:49;18.90;99.90
13229;DHT22;6680;53.220;10.402;2023-08-07T09:49:17;19.10;99.90
13229;DHT22;6680;53.220;10.402;2023-08-07T09:51:45;19.10;99.90
13229;DHT22;6680;53.220;10.402;2023-08-07T09:54:13;19.10;99.90
13229;DHT22;6680;53.220;10.402;2023-08-07T09:56:41;19.10;99.90
13229;DHT22;6680;53.220;10.402;2023-08-07T09:59:08;18.90;99.90
13229;DHT22;6680;53.220;10.402;2023-08-07T10:01:36;18.70;99.90
13229;DHT22;6680;53.220;10.402;2023-08-07T10:04:05;18.80;99.90
13229;DHT22;6680;53.220;10.402;2023-08-07T10:06:32;18.80;99.90
13229;DHT22;6680;53.220;10.402;2023-08-07T10:08:59;18.90;99.90
13229;DHT22;6680;53.220;10.402;2023-08-07T10:11:28;19.00;99.90
13229;DHT22;6680;53.220;10.402;2023-08-07T10:13:57;18.90;99.90
13229;DHT22;6680;53.220;10.402;2023-08-07T10:16:26;19.00;99.90
13229;DHT22;6680;53.220;10.402;2023-08-07T10:18:52;19.00;99.90
13229;DHT22;6680;53.220;10.402;2023-08-07T10:21:19;19.10;99.90
13229;DHT22;6680;53.220;10.402;2023-08-07T10:23:48;19.30;99.90
13229;DHT22;6680;53.220;10.402;2023-08-07T10:26:16;19.40;99.90
13229;DHT22;6680;53.220;10.402;2023-08-07T10:28:43;19.60;99.90
13229;DHT22;6680;53.220;10.402;2023-08-07T10:31:13;19.60;99.90
13229;DHT22;6680;53.220;10.402;2023-08-07T10:33:41;19.60;99.90
13229;DHT22;6680;53.220;10.402;2023-08-07T10:36:09;19.40;99.90
13229;DHT22;6680;53.220;10.402;2023-08-07T10:38:36;19.10;99.90
13229;DHT22;6680;53.220;10.402;2023-08-07T10:41:06;18.80;99.90
13229;DHT22;6680;53.220;10.402;2023-08-07T10:43:37;18.50;99.90
13229;DHT22;6680;53.220;10.402;2023-08-07T10:46:04;18.00;99.90
13229;DHT22;6680;53.220;10.402;2023-08-07T10:48:39;17.50;99.90
13229;DHT22;6680;53.220;10.402;2023-08-07T10:51:06;17.20;99.90
13229;DHT22;6680;53.220;10.402;2023-08-07T10:53:35;17.00;99.90
13229;DHT22;6680;53.220;10.402;2023-08-07T10:56:02;17.70;99.90
13229;DHT22;6680;53.220;10.402;2023-08-07T10:58:31;17.10;99.90
13229;DHT22;6680;53.220;10.402;2023-08-07T11:01:21;17.30;99.90
13229;DHT22;6680;53.220;10.402;2023-08-07T11:03:50;17.80;99.90
13229;DHT22;6680;53.220;10.402;2023-08-07T11:06:18;17.90;99.90
13229;DHT22;6680;53.220;10.402;2023-08-07T11:08:48;18.30;99.90
13229;DHT22;6680;53.220;10.402;2023-08-07T11:11:15;18.70;99.90
13229;DHT22;6680;53.220;10.402;2023-08-07T11:13:41;19.00;99.90
13229;DHT22;6680;53.220;10.402;2023-08-07T11:16:08;19.00;99.90
13229;DHT22;6680;53.220;10.402;2023-08-07T11:18:36;19.00;99.90
13229;DHT22;6680;53.220;10.402;2023-08-07T11:21:07;19.00;99.90
13229;DHT22;6680;53.220;10.402;2023-08-07T11:23:36;18.90;99.90
13229;DHT22;6680;53.220;10.402;2023-08-07T11:26:03;18.80;99.90
13229;DHT22;6680;53.220;10.402;2023-08-07T11:28:30;18.70;99.90
13229;DHT22;6680;53.220;10.402;2023-08-07T11:30:57;18.70;99.90
13229;DHT22;6680;53.220;10.402;2023-08-07T11:33:25;18.60;99.90
13229;DHT22;6680;53.220;10.402;2023-08-07T11:35:53;18.60;99.90
13229;DHT22;6680;53.220;10.402;2023-08-07T11:38:32;18.60;99.90
13229;DHT22;6680;53.220;10.402;2023-08-07T11:40:59;18.60;99.90
13229;DHT22;6680;53.220;10.402;2023-08-07T11:43:30;18.90;99.90
13229;DHT22;6680;53.220;10.402;2023-08-07T11:45:58;18.70;99.90
13229;DHT22;6680;53.220;10.402;2023-08-07T11:48:26;18.80;99.90
13229;DHT22;6680;53.220;10.402;2023-08-07T11:50:56;19.40;99.90
13229;DHT22;6680;53.220;10.402;2023-08-07T11:53:24;19.10;99.90
13229;DHT22;6680;53.220;10.402;2023-08-07T11:55:58;18.80;99.90
13229;DHT22;6680;53.220;10.402;2023-08-07T11:58:26;18.60;99.90
13229;DHT22;6680;53.220;10.402;2023-08-07T12:00:53;18.30;99.90
13229;DHT22;6680;53.220;10.402;2023-08-07T12:03:25;18.30;99.90
13229;DHT22;6680;53.220;10.402;2023-08-07T12:05:52;18.10;99.90
13229;DHT22;6680;53.220;10.402;2023-08-07T12:08:19;17.90;99.90
13229;DHT22;6680;53.220;10.402;2023-08-07T12:10:49;18.00;99.90
13229;DHT22;6680;53.220;10.402;2023-08-07T12:13:20;18.20;99.90
13229;DHT22;6680;53.220;10.402;2023-08-07T12:15:51;18.30;99.90
13229;DHT22;6680;53.220;10.402;2023-08-07T12:18:18;18.20;99.90
13229;DHT22;6680;53.220;10.402;2023-08-07T12:20:45;18.10;99.90
13229;DHT22;6680;53.220;10.402;2023-08-07T12:23:14;17.90;99.90
13229;DHT22;6680;53.220;10.402;2023-08-07T12:25:41;18.00;99.90
13229;DHT22;6680;53.220;10.402;2023-08-07T12:28:08;18.00;99.90
13229;DHT22;6680;53.220;10.402;2023-08-07T12:30:36;18.20;99.90
13229;DHT22;6680;53.220;10.402;2023-08-07T12:33:03;18.20;99.90
13229;DHT22;6680;53.220;10.402;2023-08-07T12:35:31;18.10;99.90
13229;DHT22;6680;53.220;10.402;2023-08-07T12:37:58;18.00;99.90
13229;DHT22;6680;53.220;10.402;2023-08-07T12:40:24;18.00;99.90
13229;DHT22;6680;53.220;10.402;2023-08-07T12:42:52;18.10;99.90
13229;DHT22;6680;53.220;10.402;2023-08-07T12:45:19;18.10;99.90
13229;DHT22;6680;53.220;10.402;2023-08-07T12:47:47;18.30;99.90
13229;DHT22;6680;53.220;10.402;2023-08-07T12:50:14;18.30;99.90
13229;DHT22;6680;53.220;10.402;2023-08-07T12:52:41;18.30;99.90
13229;DHT22;6680;53.220;10.402;2023-08-07T12:55:08;18.60;99.90
13229;DHT22;6680;53.220;10.402;2023-08-07T12:57:35;18.50;99.90
13229;DHT22;6680;53.220;10.402;2023-08-07T13:00:02;18.60;99.90
13229;DHT22;6680;53.220;10.402;2023-08-07T13:02:29;18.70;99.90
13229;DHT22;6680;53.220;10.402;2023-08-07T13:04:57;18.80;99.90
13229;DHT22;6680;53.220;10.402;2023-08-07T13:07:24;18.90;99.90
13229;DHT22;6680;53.220;10.402;2023-08-07T13:09:51;19.10;99.90
13229;DHT22;6680;53.220;10.402;2023-08-07T13:12:17;19.30;99.90
13229;DHT22;6680;53.220;10.402;2023-08-07T13:14:44;19.10;99.90
13229;DHT22;6680;53.220;10.402;2023-08-07T13:17:11;19.00;99.90
13229;DHT22;6680;53.220;10.402;2023-08-07T13:19:37;18.90;99.90
13229;DHT22;6680;53.220;10.402;2023-08-07T13:22:07;18.90;99.90
13229;DHT22;6680;53.220;10.402;2023-08-07T13:24:34;18.80;99.90
13229;DHT22;6680;53.220;10.402;2023-08-07T13:27:01;18.90;99.90
13229;DHT22;6680;53.220;10.402;2023-08-07T13:29:28;19.10;99.90
13229;DHT22;6680;53.220;10.402;2023-08-07T13:31:55;19.10;99.90
13229;DHT22;6680;53.220;10.402;2023-08-07T13:34:22;19.10;99.90
13229;DHT22;6680;53.220;10.402;2023-08-07T13:36:50;19.10;99.90
13229;DHT22;6680;53.220;10.402;2023-08-07T13:39:18;19.10;99.90
13229;DHT22;6680;53.220;10.402;2023-08-07T13:41:45;19.00;99.90
13229;DHT22;6680;53.220;10.402;2023-08-07T13:44:11;19.00;99.90
13229;DHT22;6680;53.220;10.402;2023-08-07T13:46:38;19.10;99.90
13229;DHT22;6680;53.220;10.402;2023-08-07T13:49:05;19.10;99.90
13229;DHT22;6680;53.220;10.402;2023-08-07T13:51:31;19.10;99.90
13229;DHT22;6680;53.220;10.402;2023-08-07T13:53:58;18.80;99.90
13229;DHT22;6680;53.220;10.402;2023-08-07T13:56:26;18.70;99.90
13229;DHT22;6680;53.220;10.402;2023-08-07T13:58:53;18.60;99.90
13229;DHT22;6680;53.220;10.402;2023-08-07T14:01:20;17.90;99.90
13229;DHT22;6680;53.220;10.402;2023-08-07T14:03:47;16.30;99.90
13229;DHT22;6680;53.220;10.402;2023-08-07T14:06:14;16.20;99.90
13229;DHT22;6680;53.220;10.402;2023-08-07T14:08:41;15.90;99.90
13229;DHT22;6680;53.220;10.402;2023-08-07T14:11:07;15.60;99.90
13229;DHT22;6680;53.220;10.402;2023-08-07T14:13:35;15.60;99.90
13229;DHT22;6680;53.220;10.402;2023-08-07T14:16:02;15.60;99.90
13229;DHT22;6680;53.220;10.402;2023-08-07T14:18:29;15.70;99.90
13229;DHT22;6680;53.220;10.402;2023-08-07T14:20:55;15.70;99.90
13229;DHT22;6680;53.220;10.402;2023-08-07T14:23:22;16.00;99.90
13229;DHT22;6680;53.220;10.402;2023-08-07T14:25:49;16.20;99.90
13229;DHT22;6680;53.220;10.402;2023-08-07T14:28:18;16.40;99.90
13229;DHT22;6680;53.220;10.402;2023-08-07T14:30:47;16.70;99.90
13229;DHT22;6680;53.220;10.402;2023-08-07T14:33:13;16.80;99.90
13229;DHT22;6680;53.220;10.402;2023-08-07T14:35:40;16.80;99.90
13229;DHT22;6680;53.220;10.402;2023-08-07T14:38:07;16.80;99.90
13229;DHT22;6680;53.220;10.402;2023-08-07T14:40:34;16.80;99.90
13229;DHT22;6680;53.220;10.402;2023-08-07T14:43:03;16.70;99.90
13229;DHT22;6680;53.220;10.402;2023-08-07T14:45:30;16.80;99.90
13229;DHT22;6680;53.220;10.402;2023-08-07T14:47:58;17.10;99.90
13229;DHT22;6680;53.220;10.402;2023-08-07T14:50:24;17.30;99.90
13229;DHT22;6680;53.220;10.402;2023-08-07T14:52:51;17.40;99.90
13229;DHT22;6680;53.220;10.402;2023-08-07T14:55:18;17.40;99.90
13229;DHT22;6680;53.220;10.402;2023-08-07T14:57:44;17.40;99.90
13229;DHT22;6680;53.220;10.402;2023-08-07T15:00:12;17.40;99.90
13229;DHT22;6680;53.220;10.402;2023-08-07T15:02:39;17.40;99.90
13229;DHT22;6680;53.220;10.402;2023-08-07T15:05:08;17.30;99.90
13229;DHT22;6680;53.220;10.402;2023-08-07T15:07:34;17.20;99.90
13229;DHT22;6680;53.220;10.402;2023-08-07T15:10:01;17.10;99.90
13229;DHT22;6680;53.220;10.402;2023-08-07T15:12:28;16.90;99.90
13229;DHT22;6680;53.220;10.402;2023-08-07T15:14:54;16.90;99.90
13229;DHT22;6680;53.220;10.402;2023-08-07T15:17:22;16.90;99.90
13229;DHT22;6680;53.220;10.402;2023-08-07T15:19:48;16.90;99.90
13229;DHT22;6680;53.220;10.402;2023-08-07T15:22:16;17.00;99.90
13229;DHT22;6680;53.220;10.402;2023-08-07T15:24:43;17.10;99.90
13229;DHT22;6680;53.220;10.402;2023-08-07T15:27:10;17.10;99.90
13229;DHT22;6680;53.220;10.402;2023-08-07T15:29:36;17.20;99.90
13229;DHT22;6680;53.220;10.402;2023-08-07T15:32:07;17.50;99.90